Time;durP1;ratioP1;P1;durP2;ratioP2;P2;SDS_P1;SDS_P2;PMS_P1;PMS_P2;Temp;Humidity;BMP_temperature;BMP_pressure;BME280_temperature;BME280_humidity;BME280_pressure;Samples;Min_cycle;Max_cycle;Signal;HPM_P1;HPM_P2
2023/02/09 00:02:41;;;;;;;;;28.50;25.75;;;;;2.26;70.67;103060.47;146613;581;46020;-72
2023/02/09 00:05:45;;;;;;;;;21.00;19.00;;;;;2.16;71.94;103054.06;146605;626;46013;-74
2023/02/09 00:09:08;;;;;;;;;24.75;20.50;;;;;2.04;71.98;103056.94;146606;590;46020;-73
2023/02/09 00:15:41;;;;;;;;;41.00;33.75;;;;;2.21;70.81;103024.78;146608;573;46010;-72
2023/02/09 00:19:01;;;;;;;;;31.75;24.75;;;;;2.32;70.87;103019.34;146605;585;46016;-72
2023/02/09 00:22:11;;;;;;;;;44.00;36.75;;;;;2.39;69.89;103016.78;146609;618;46021;-73
2023/02/09 00:25:27;;;;;;;;;44.50;38.00;;;;;0.49;69.20;102669.06;146606;587;46016;-72
2023/02/09 00:28:48;;;;;;;;;43.00;36.00;;;;;2.39;68.94;103027.03;146609;599;46010;-72
2023/02/09 00:31:49;;;;;;;;;53.25;42.50;;;;;2.39;68.46;103014.22;146605;576;47014;-73
2023/02/09 00:34:49;;;;;;;;;55.00;43.75;;;;;2.39;68.52;103009.09;146609;570;46013;-72
2023/02/09 00:37:58;;;;;;;;;62.25;49.00;;;;;2.40;67.85;103018.62;146607;615;46016;-72
2023/02/09 00:41:09;;;;;;;;;56.50;43.75;;;;;2.38;67.25;103026.84;146609;593;46020;-72
2023/02/09 00:44:08;;;;;;;;;33.50;31.50;;;;;2.28;68.81;103042.75;146606;606;46894;-72
2023/02/09 00:47:40;;;;;;;;;40.25;33.25;;;;;2.17;70.72;103043.06;146608;569;46020;-71
2023/02/09 00:50:44;;;;;;;;;38.25;29.25;;;;;2.07;70.15;103026.59;146604;610;46017;-73
2023/02/09 00:53:57;;;;;;;;;55.00;43.00;;;;;2.09;69.63;103006.31;146610;569;46010;-72
2023/02/09 00:57:03;;;;;;;;;46.00;38.00;;;;;2.19;69.23;103016.94;146603;574;47012;-74
2023/02/09 01:00:04;;;;;;;;;46.75;37.75;;;;;2.27;69.53;103029.03;146608;581;46020;-73
2023/02/09 01:03:10;;;;;;;;;33.50;31.00;;;;;2.32;69.41;103016.78;146603;569;47012;-73
2023/02/09 01:06:08;;;;;;;;;24.75;21.50;;;;;2.34;69.46;103017.88;146607;591;46021;-75
2023/02/09 01:09:27;;;;;;;;;32.00;26.25;;;;;0.39;68.90;102646.59;146607;757;46016;-73
2023/02/09 01:12:36;;;;;;;;;27.25;21.75;;;;;2.39;68.54;102997.94;146610;609;46021;-73
2023/02/09 01:15:46;;;;;;;;;;;;;;;;;;;;;
2023/02/09 01:18:50;;;;;;;;;43.00;31.25;;;;;2.39;69.04;103005.63;146608;589;45028;-76
2023/02/09 01:22:17;;;;;;;;;34.50;28.25;;;;;0.41;68.86;102641.72;146605;569;46016;-76
2023/02/09 01:25:45;;;;;;;;;27.00;23.75;;;;;2.36;68.99;102987.34;146609;586;46020;-75
2023/02/09 01:29:04;;;;;;;;;27.25;23.00;;;;;2.33;69.57;102986.97;146605;584;46019;-75
2023/02/09 01:31:56;;;;;;;;;27.00;23.00;;;;;2.26;69.18;102975.97;146611;577;45020;-73
2023/02/09 01:35:17;;;;;;;;;25.25;19.50;;;;;2.19;69.14;102967.41;146607;650;46017;-74
2023/02/09 01:38:28;;;;;;;;;39.75;28.00;;;;;2.15;69.44;102968.69;146607;640;46010;-77
2023/02/09 01:41:25;;;;;;;;;45.25;36.50;;;;;2.14;69.69;102961.72;146605;569;46016;-75
2023/02/09 01:45:08;;;;;;;;;54.00;39.75;;;;;0.16;69.93;102607.19;146610;678;46010;-76
2023/02/09 01:48:07;;;;;;;;;31.00;27.50;;;;;2.08;70.71;102973.75;146607;565;47015;-76
2023/02/09 01:51:09;;;;;;;;;32.75;25.50;;;;;1.96;70.28;102963.00;146608;588;46010;-76
2023/02/09 01:54:04;;;;;;;;;69.75;54.00;;;;;1.90;71.16;102963.84;146603;581;46014;-75
2023/02/09 01:57:21;;;;;;;;;56.00;44.75;;;;;-0.06;70.79;102604.53;146607;590;46021;-77
2023/02/09 02:00:31;;;;;;;;;32.50;32.50;;;;;1.93;71.02;102949.81;146607;574;46914;-75
2023/02/09 02:03:32;;;;;;;;;27.50;24.00;;;;;1.93;70.68;102951.44;146607;583;46020;-73
2023/02/09 02:07:01;;;;;;;;;;;;;;;;;;;;;
2023/02/09 02:10:02;;;;;;;;;36.75;29.00;;;;;1.83;72.20;102978.47;146608;604;46010;-72
2023/02/09 02:13:15;;;;;;;;;22.75;18.25;;;;;1.69;74.15;102981.00;146608;569;46017;-73
2023/02/09 02:17:02;;;;;;;;;21.00;15.75;;;;;-0.60;74.42;102616.41;146609;575;46010;-72
2023/02/09 02:20:50;;;;;;;;;25.00;18.25;;;;;1.35;74.53;102987.06;146607;774;46017;-72
2023/02/09 02:24:26;;;;;;;;;;;;;;;;;;;;;
2023/02/09 02:28:01;;;;;;;;;65.25;46.00;;;;;1.47;75.67;102987.66;146608;583;46016;-72
2023/02/09 02:31:57;;;;;;;;;32.75;28.50;;;;;-1.20;74.96;102499.38;146608;606;46020;-73
2023/02/09 02:35:59;;;;;;;;;19.25;17.50;;;;;-0.43;74.75;102631.28;146606;625;45016;-73
2023/02/09 02:39:30;;;;;;;;;18.00;15.00;;;;;-0.42;74.54;102617.81;146609;645;46020;-73
2023/02/09 02:43:19;;;;;;;;;18.25;18.00;;;;;-0.19;74.54;102644.50;146609;569;45018;-75
2023/02/09 02:46:57;;;;;;;;;24.50;20.50;;;;;-0.98;74.30;102497.91;146609;656;46020;-74
2023/02/09 02:50:15;;;;;;;;;19.75;16.25;;;;;1.73;74.38;102966.94;146604;629;46017;-73
2023/02/09 02:53:30;;;;;;;;;15.25;13.25;;;;;1.74;74.71;102956.88;146608;600;46010;-71
2023/02/09 02:56:58;;;;;;;;;13.25;10.50;;;;;1.79;74.39;102952.34;146610;575;46016;-69
2023/02/09 03:00:09;;;;;;;;;18.25;17.50;;;;;1.81;74.57;102950.88;146610;613;46020;-69
2023/02/09 03:03:10;;;;;;;;;19.25;17.25;;;;;1.85;74.79;102947.97;146609;595;46912;-69
2023/02/09 03:06:23;;;;;;;;;18.00;17.25;;;;;0.25;74.72;102663.50;146618;592;46010;-70
2023/02/09 03:09:25;;;;;;;;;17.50;16.75;;;;;1.89;75.78;102942.47;146610;630;46016;-69
2023/02/09 03:13:06;;;;;;;;;24.50;19.75;;;;;-0.05;75.63;102591.06;146615;571;46050;-70
2023/02/09 03:16:56;;;;;;;;;20.50;18.00;;;;;1.93;76.23;102941.19;146611;643;47042;-68
2023/02/09 03:20:23;;;;;;;;;30.75;22.75;;;;;-0.18;75.37;102563.88;146615;586;46020;-69
2023/02/09 03:24:05;;;;;;;;;36.00;26.25;;;;;1.94;76.28;102933.72;146614;593;46012;-68
2023/02/09 03:27:35;;;;;;;;;23.75;21.25;;;;;1.90;75.89;102925.47;146616;575;46020;-69
2023/02/09 03:30:45;;;;;;;;;26.25;23.50;;;;;1.88;76.22;102934.63;146612;574;46016;-70
2023/02/09 03:34:11;;;;;;;;;33.50;29.50;;;;;1.87;75.91;102930.22;146613;566;46020;-71
2023/02/09 03:37:15;;;;;;;;;43.25;32.25;;;;;1.83;76.37;102922.19;146606;614;46016;-71
2023/02/09 03:40:18;;;;;;;;;35.50;31.00;;;;;1.83;77.05;102936.62;146617;603;46020;-71
2023/02/09 03:43:25;;;;;;;;;47.25;36.25;;;;;1.75;78.01;102937.34;146612;589;46034;-71
2023/02/09 03:46:50;;;;;;;;;18.75;15.50;;;;;1.66;77.69;102928.56;146615;620;46020;-70
2023/02/09 03:49:57;;;;;;;;;13.00;11.75;;;;;1.59;78.02;102929.47;146612;572;46016;-71
2023/02/09 03:53:10;;;;;;;;;17.25;12.25;;;;;1.54;77.72;102928.88;146615;705;46010;-71
2023/02/09 03:56:27;;;;;;;;;14.75;10.00;;;;;1.57;77.82;102928.34;146611;590;46016;-69
2023/02/09 03:59:36;;;;;;;;;14.25;10.00;;;;;1.59;78.10;102917.59;146616;626;46020;-69
2023/02/09 04:02:37;;;;;;;;;39.50;30.25;;;;;1.62;77.63;102904.25;146612;618;46013;-69
2023/02/09 04:05:40;;;;;;;;;28.25;25.75;;;;;1.66;78.14;102901.34;146607;599;46010;-69
2023/02/09 04:08:38;;;;;;;;;48.25;36.75;;;;;1.68;77.96;102904.06;146603;611;47016;-69
2023/02/09 04:11:40;;;;;;;;;23.50;17.00;;;;;1.69;77.93;102894.03;146609;566;46012;-70
2023/02/09 04:14:43;;;;;;;;;28.00;21.25;;;;;0.09;77.65;102612.22;146607;615;46016;-70
2023/02/09 04:17:41;;;;;;;;;37.25;30.75;;;;;1.72;77.73;102890.94;146608;566;46021;-71
2023/02/09 04:20:47;;;;;;;;;32.00;26.00;;;;;1.75;78.23;102884.56;146609;599;46012;-72
2023/02/09 04:23:48;;;;;;;;;42.50;33.75;;;;;1.78;77.86;102900.28;146606;629;47010;-72
2023/02/09 04:26:59;;;;;;;;;58.75;47.00;;;;;-0.18;77.48;102554.56;146607;562;46013;-71
2023/02/09 04:29:57;;;;;;;;;52.75;41.25;;;;;1.76;78.06;102903.38;146610;664;46010;-71
2023/02/09 04:33:15;;;;;;;;;48.25;38.25;;;;;-0.28;77.28;102533.75;146606;606;46017;-71
2023/02/09 04:36:22;;;;;;;;;54.75;41.00;;;;;1.78;78.13;102890.03;146605;584;46020;-69
2023/02/09 04:39:22;;;;;;;;;40.25;35.75;;;;;1.83;78.17;102899.16;146609;634;46012;-69
2023/02/09 04:42:33;;;;;;;;;39.00;32.75;;;;;1.86;78.27;102903.75;146610;599;46020;-69
2023/02/09 04:45:36;;;;;;;;;39.25;32.50;;;;;1.85;78.40;102905.38;146608;614;46012;-69
2023/02/09 04:48:40;;;;;;;;;36.25;31.75;;;;;1.82;78.38;102902.47;146609;608;46021;-69
2023/02/09 04:51:58;;;;;;;;;37.25;32.50;;;;;-0.29;78.04;102539.59;146606;632;47014;-69
2023/02/09 04:55:02;;;;;;;;;41.00;31.75;;;;;1.76;79.55;102905.91;146610;564;46021;-69
2023/02/09 05:01:36;;;;;;;;;20.25;16.75;;;;;1.65;79.60;102922.50;146609;626;46020;-69
2023/02/09 05:04:38;;;;;;;;;13.00;11.75;;;;;1.66;79.06;102915.78;146623;617;46012;-70
2023/02/09 05:07:46;;;;;;;;;12.75;8.50;;;;;1.68;79.84;102910.09;146634;717;45020;-69
2023/02/09 05:10:39;;;;;;;;;23.50;21.75;;;;;1.68;81.00;102914.28;146630;649;45013;-70
2023/02/09 05:13:45;;;;;;;;;27.00;20.50;;;;;1.65;80.13;102922.50;146632;583;45018;-68
2023/02/09 05:16:47;;;;;;;;;29.00;20.75;;;;;1.71;80.77;102919.78;146627;575;45016;-70
2023/02/09 05:19:51;;;;;;;;;22.00;19.00;;;;;1.73;80.60;102928.56;146632;564;45012;-68
2023/02/09 05:23:05;;;;;;;;;;;;;;;;;;;;;
2023/02/09 05:26:13;;;;;;;;;28.00;24.00;;;;;1.81;79.95;102930.44;146633;597;45020;-71
2023/02/09 05:29:18;;;;;;;;;36.25;30.50;;;;;1.84;80.47;102929.16;146629;628;45014;-70
2023/02/09 05:32:27;;;;;;;;;34.75;29.25;;;;;1.84;79.78;102935.91;146630;618;46010;-69
2023/02/09 05:35:45;;;;;;;;;42.00;30.00;;;;;1.83;80.15;102945.19;146624;587;45016;-72
2023/02/09 05:38:54;;;;;;;;;41.75;34.25;;;;;1.84;80.76;102936.81;146624;647;46012;-71
2023/02/09 05:45:15;;;;;;;;;29.75;24.50;;;;;1.89;80.11;102944.13;146631;571;46010;-72
2023/02/09 05:48:19;;;;;;;;;22.25;19.50;;;;;1.87;79.44;102932.78;146628;629;45017;-73
2023/02/09 05:51:21;;;;;;;;;20.75;19.75;;;;;1.87;79.42;102927.66;146630;595;45020;-73
2023/02/09 05:54:28;;;;;;;;;29.00;23.50;;;;;1.89;79.60;102933.91;146624;772;45016;-72
2023/02/09 05:57:25;;;;;;;;;43.25;38.25;;;;;1.83;80.72;102919.62;146631;594;45010;-73
2023/02/09 06:00:41;;;;;;;;;31.25;27.50;;;;;1.82;79.94;102935.72;146627;565;45016;-71
2023/02/09 06:03:44;;;;;;;;;39.75;32.00;;;;;1.81;79.92;102939.00;146620;599;46010;-71
2023/02/09 06:06:44;;;;;;;;;39.50;33.25;;;;;1.82;80.10;102943.38;146607;586;46016;-70
2023/02/09 06:09:47;;;;;;;;;25.50;21.75;;;;;1.86;80.15;102939.56;146607;576;46012;-69
2023/02/09 06:13:06;;;;;;;;;29.50;26.00;;;;;1.90;79.86;102943.38;146606;643;46016;-70
2023/02/09 06:16:01;;;;;;;;;36.75;31.50;;;;;1.99;81.08;102952.19;146610;577;46010;-71
2023/02/09 06:19:17;;;;;;;;;52.00;41.00;;;;;0.03;81.05;102591.06;146607;597;45030;-74
2023/02/09 06:22:18;;;;;;;;;51.75;40.25;;;;;2.07;80.88;102957.50;146608;611;46020;-77
2023/02/09 06:25:19;;;;;;;;;36.50;34.50;;;;;2.12;82.53;102932.47;146608;608;46012;-73
2023/02/09 06:28:23;;;;;;;;;45.50;36.75;;;;;2.16;80.84;102946.56;146608;625;47010;-77
2023/02/09 06:31:29;;;;;;;;;38.75;33.25;;;;;0.26;79.55;102591.34;146606;617;47015;-73
2023/02/09 06:34:42;;;;;;;;;;;;;;;;;;;;;
2023/02/09 06:37:45;;;;;;;;;47.50;37.00;;;;;2.24;81.08;102945.81;146603;593;46016;-75
2023/02/09 06:40:47;;;;;;;;;39.75;35.00;;;;;2.27;81.01;102944.56;146609;572;46010;-74
2023/02/09 06:43:52;;;;;;;;;52.50;43.75;;;;;2.32;80.04;102955.34;146605;569;47016;-74
2023/02/09 06:46:52;;;;;;;;;60.50;45.75;;;;;2.36;79.92;102960.09;146608;687;46011;-73
2023/02/09 06:50:17;;;;;;;;;46.50;39.75;;;;;2.45;79.65;102953.50;146605;563;46016;-71
2023/02/09 06:53:13;;;;;;;;;36.75;31.75;;;;;2.54;79.43;102961.38;146606;565;47011;-73
2023/02/09 06:56:47;;;;;;;;;45.00;35.75;;;;;2.61;79.62;102963.00;146603;639;47914;-70
2023/02/09 06:59:47;;;;;;;;;25.00;24.00;;;;;2.65;79.39;102971.25;146608;577;46020;-69
2023/02/09 07:02:49;;;;;;;;;26.75;23.00;;;;;2.70;79.24;102979.47;146607;578;46016;-69
2023/02/09 07:05:59;;;;;;;;;;;;;;;;;;;;;
2023/02/09 07:09:00;;;;;;;;;35.50;32.25;;;;;2.70;79.49;102967.56;146605;716;46017;-69
2023/02/09 07:12:30;;;;;;;;;47.50;38.00;;;;;2.76;79.45;102963.16;146604;685;46034;-70
2023/02/09 07:15:39;;;;;;;;;30.00;27.25;;;;;2.78;78.72;102965.94;146608;619;46012;-72
2023/02/09 07:18:55;;;;;;;;;67.25;51.00;;;;;2.83;78.71;102969.94;146608;618;46021;-74
2023/02/09 07:21:59;;;;;;;;;61.75;49.25;;;;;2.92;78.52;102972.66;146606;666;46016;-70
2023/02/09 07:24:57;;;;;;;;;62.50;48.50;;;;;2.98;78.85;102973.38;146605;570;46872;-73
2023/02/09 07:28:01;;;;;;;;;56.50;44.25;;;;;3.03;78.43;102984.19;146607;591;46012;-71
2023/02/09 07:31:13;;;;;;;;;60.00;45.50;;;;;1.13;78.76;102633.41;146610;571;45021;-75
2023/02/09 07:34:29;;;;;;;;;;;;;;;;;;;;;
2023/02/09 07:37:46;;;;;;;;;59.00;42.25;;;;;3.18;79.03;102980.88;146606;587;46021;-75
2023/02/09 07:40:55;;;;;;;;;46.75;33.50;;;;;3.20;79.03;102975.16;146607;613;46014;-75
2023/02/09 07:44:20;;;;;;;;;;;;;;;;;;;;;
2023/02/09 07:47:51;;;;;;;;;56.25;43.50;;;;;1.21;77.47;102636.87;146607;579;46013;-73
2023/02/09 07:51:11;;;;;;;;;32.75;27.00;;;;;3.24;78.48;102996.97;146607;569;47010;-74
2023/02/09 07:54:12;;;;;;;;;32.75;28.50;;;;;3.24;78.45;102997.88;146607;617;46016;-72
2023/02/09 07:57:26;;;;;;;;;38.75;30.50;;;;;3.32;78.57;103018.34;146609;685;46020;-81
2023/02/09 08:00:48;;;;;;;;;53.00;41.50;;;;;3.31;78.58;103011.41;146608;634;46013;-80
2023/02/09 08:04:00;;;;;;;;;45.50;37.75;;;;;3.31;78.24;103017.44;146610;599;46020;-71
2023/02/09 08:07:13;;;;;;;;;53.00;38.25;;;;;3.39;78.64;103010.63;146612;630;46035;-71
2023/02/09 08:10:17;;;;;;;;;50.25;36.25;;;;;3.51;78.65;103019.75;146616;687;46012;-72
2023/02/09 08:13:12;;;;;;;;;56.75;43.75;;;;;3.56;77.68;103016.09;146613;584;47012;-72
2023/02/09 08:16:42;;;;;;;;;58.75;47.00;;;;;3.66;77.00;103018.97;146615;573;46010;-75
2023/02/09 08:20:11;;;;;;;;;45.50;38.25;;;;;1.77;77.62;102688.69;146614;597;46012;-72
2023/02/09 08:23:22;;;;;;;;;42.00;34.00;;;;;3.60;77.37;103017.34;146617;566;46010;-69
2023/02/09 08:26:19;;;;;;;;;54.00;40.00;;;;;3.58;78.22;103019.75;146612;563;46012;-68
2023/02/09 08:29:40;;;;;;;;;65.75;50.50;;;;;3.61;77.58;103017.50;146613;611;46914;-68
2023/02/09 08:32:49;;;;;;;;;65.50;52.25;;;;;3.67;77.71;103010.53;146611;570;46016;-71
2023/02/09 08:35:52;;;;;;;;;53.50;43.00;;;;;3.73;78.45;103024.81;146615;586;46020;-74
2023/02/09 08:38:58;;;;;;;;;;;;;;;;;;;;;
2023/02/09 08:42:06;;;;;;;;;48.75;40.75;;;;;3.74;77.25;102999.34;146617;569;46010;-76
2023/02/09 08:45:04;;;;;;;;;67.75;49.00;;;;;3.80;77.54;103015.44;146613;584;46013;-78
2023/02/09 08:48:08;;;;;;;;;85.33;67.00;;;;;3.79;77.91;103007.53;146613;573;46020;-71
2023/02/09 08:51:07;;;;;;;;;87.00;74.33;;;;;3.79;76.90;103012.69;146618;632;46016;-73
2023/02/09 08:54:06;;;;;;;;;66.00;51.00;;;;;3.81;78.01;103009.56;146621;576;46010;-71
2023/02/09 08:57:20;;;;;;;;;63.75;48.75;;;;;3.87;77.66;103009.34;146614;569;46012;-71
2023/02/09 09:00:19;;;;;;;;;60.75;46.75;;;;;3.90;76.67;103015.75;146615;602;46021;-71
2023/02/09 09:03:20;;;;;;;;;54.00;41.25;;;;;3.96;76.45;103018.09;146611;585;46012;-71
2023/02/09 09:06:28;;;;;;;;;;;;;;;;;;;;;
2023/02/09 09:09:28;;;;;;;;;74.00;59.00;;;;;4.06;77.95;103005.56;146606;590;46016;-75
2023/02/09 09:12:23;;;;;;;;;69.33;54.00;;;;;4.09;77.09;103007.56;146608;623;46020;-71
2023/02/09 09:15:41;;;;;;;;;69.25;51.75;;;;;4.16;77.65;102999.81;146605;612;46012;-78
2023/02/09 09:18:41;;;;;;;;;74.33;56.67;;;;;4.21;77.55;103011.53;146608;593;46020;-76
2023/02/09 09:21:48;;;;;;;;;80.00;61.00;;;;;2.50;76.58;102695.44;146608;570;46016;-73
2023/02/09 09:24:48;;;;;;;;;66.75;52.00;;;;;4.34;76.46;103014.75;146612;563;46020;-72
2023/02/09 09:27:44;;;;;;;;;70.75;53.25;;;;;4.48;76.81;103023.06;146606;598;46012;-73
2023/02/09 09:31:04;;;;;;;;;70.25;52.75;;;;;4.59;76.68;103015.84;146609;581;46021;-74
2023/02/09 09:34:09;;;;;;;;;72.33;56.00;;;;;3.84;77.11;102865.28;146606;563;46012;-72
2023/02/09 09:37:01;;;;;;;;;66.25;51.00;;;;;4.79;76.15;103024.84;146608;608;45048;-74
2023/02/09 09:39:42;;;;;;;;;50.25;40.50;;;;;4.81;78.20;103026.84;146697;564;46022;-73
2023/02/09 09:42:46;;;;;;;;;55.25;42.00;;;;;4.89;76.48;103016.47;146617;632;46032;-76
2023/02/09 09:45:42;;;;;;;;;52.50;41.75;;;;;4.98;76.03;103020.97;146615;572;46010;-73
2023/02/09 09:48:56;;;;;;;;;40.75;36.25;;;;;4.85;73.99;102987.88;146609;653;46016;-77
2023/02/09 09:51:52;;;;;;;;;51.00;39.25;;;;;5.03;74.22;103021.50;146613;573;46021;-76
2023/02/09 09:54:46;;;;;;;;;57.50;45.00;;;;;5.04;74.43;103011.38;146604;569;48915;-77
2023/02/09 09:57:46;;;;;;;;;46.25;36.00;;;;;5.06;73.39;103008.97;146614;686;46010;-76
2023/02/09 10:00:52;;;;;;;;;36.50;32.50;;;;;5.04;73.19;102989.88;146609;583;46029;-74
2023/02/09 10:04:04;;;;;;;;;53.00;43.50;;;;;5.10;73.33;103003.41;146615;577;46020;-75
2023/02/09 10:07:19;;;;;;;;;86.33;71.33;;;;;4.16;72.70;102832.91;146612;583;46916;-74
2023/02/09 10:11:06;;;;;;;;;60.00;48.00;;;;;4.63;72.88;102922.00;146622;597;46010;-73
2023/02/09 10:14:27;;;;;;;;;65.25;48.50;;;;;5.10;73.52;103000.84;146611;564;46016;-75
2023/02/09 10:17:42;;;;;;;;;62.50;48.75;;;;;5.01;73.61;102998.19;146613;565;46010;-72
2023/02/09 10:21:21;;;;;;;;;68.75;51.50;;;;;4.78;73.64;102959.66;146612;687;46016;-69
2023/02/09 10:24:40;;;;;;;;;73.25;56.50;;;;;4.99;74.11;102984.25;146612;699;46020;-72
2023/02/09 10:27:42;;;;;;;;;70.00;55.00;;;;;5.04;74.68;103000.19;146611;638;47012;-69
2023/02/09 10:30:38;;;;;;;;;67.00;52.25;;;;;5.09;75.00;102999.94;146615;635;46020;-69
2023/02/09 10:33:56;;;;;;;;;;;;;;;;;;;;;
2023/02/09 10:37:39;;;;;;;;;75.00;58.33;;;;;5.06;73.35;103011.56;146619;575;46021;-73
2023/02/09 10:40:54;;;;;;;;;83.33;66.33;;;;;5.02;73.36;103009.41;146619;594;46012;-72
2023/02/09 10:44:01;;;;;;;;;58.00;45.75;;;;;4.12;73.29;102848.75;146625;569;46010;-74
2023/02/09 10:47:43;;;;;;;;;53.00;40.25;;;;;4.86;73.34;102991.38;146617;597;46012;-73
2023/02/09 10:50:42;;;;;;;;;67.50;54.50;;;;;4.91;73.95;103000.50;146612;625;47913;-72
2023/02/09 10:54:08;;;;;;;;;65.50;49.75;;;;;4.91;73.56;102994.44;146617;620;45581;-72
2023/02/09 10:57:41;;;;;;;;;65.75;50.50;;;;;4.80;73.40;102978.75;146612;590;47035;-72
2023/02/09 11:00:45;;;;;;;;;57.50;46.00;;;;;4.87;73.87;102986.37;146617;602;46014;-72
2023/02/09 11:04:00;;;;;;;;;67.75;52.75;;;;;4.82;73.65;102984.97;146620;582;46010;-71
2023/02/09 11:07:35;;;;;;;;;56.75;45.00;;;;;4.77;72.77;102995.50;146617;693;46017;-72
2023/02/09 11:10:58;;;;;;;;;56.25;45.25;;;;;4.70;73.64;102988.75;146618;599;46020;-72
2023/02/09 11:14:16;;;;;;;;;62.75;49.50;;;;;4.68;74.78;102979.97;146614;585;46013;-72
2023/02/09 11:18:10;;;;;;;;;63.50;49.75;;;;;4.69;74.98;102983.44;146615;602;47010;-72
2023/02/09 11:21:26;;;;;;;;;67.25;53.75;;;;;4.86;76.62;102981.09;146614;570;46016;-73
2023/02/09 11:24:49;;;;;;;;;67.75;50.25;;;;;5.03;75.74;102977.78;146618;628;45020;-77
2023/02/09 11:28:10;;;;;;;;;56.50;44.00;;;;;5.15;75.64;102968.84;146617;571;46015;-77
2023/02/09 11:31:29;;;;;;;;;39.75;34.25;;;;;5.08;73.65;102971.50;146619;639;46010;-77
2023/02/09 11:35:17;;;;;;;;;40.25;34.75;;;;;4.11;73.25;102801.62;146611;625;46911;-77
2023/02/09 11:38:33;;;;;;;;;50.25;41.50;;;;;4.89;74.48;102953.16;146614;586;46020;-78
2023/02/09 11:46:09;;;;;;;;;57.00;45.25;;;;;4.87;75.19;102939.22;146614;642;46010;-79
2023/02/09 11:49:17;;;;;;;;;61.25;48.25;;;;;4.85;75.44;102944.16;146609;653;46016;-79
2023/02/09 11:52:26;;;;;;;;;55.00;42.25;;;;;4.87;75.52;102955.53;146614;577;46010;-79
2023/02/09 11:55:53;;;;;;;;;50.75;37.50;;;;;4.86;75.19;102932.25;146611;590;46913;-78
2023/02/09 11:59:26;;;;;;;;;52.50;42.00;;;;;4.75;75.16;102928.50;146611;570;47010;-79
2023/02/09 12:03:04;;;;;;;;;54.25;43.75;;;;;4.70;75.95;102913.31;146612;563;46012;-78
2023/02/09 12:06:03;;;;;;;;;46.50;35.75;;;;;4.96;75.27;102947.03;146612;581;47010;-78
2023/02/09 12:09:39;;;;;;;;;27.25;24.75;;;;;4.98;73.83;102942.94;146611;606;47012;-78
2023/02/09 12:12:57;;;;;;;;;25.50;22.25;;;;;4.88;72.63;102941.03;146613;618;46010;-78
2023/02/09 12:16:23;;;;;;;;;52.25;43.00;;;;;4.79;72.60;102940.00;146609;564;46016;-77
2023/02/09 12:19:42;;;;;;;;;49.25;38.75;;;;;4.70;73.12;102924.50;146612;583;46020;-77
2023/02/09 12:23:21;;;;;;;;;33.25;28.00;;;;;3.83;73.05;102768.47;146610;569;46016;-77
2023/02/09 12:27:09;;;;;;;;;43.25;37.25;;;;;4.52;73.42;102900.28;146615;624;46010;-77
2023/02/09 12:30:07;;;;;;;;;37.00;33.25;;;;;4.65;74.35;102914.47;146608;584;46016;-79
2023/02/09 12:34:01;;;;;;;;;38.25;33.75;;;;;4.57;73.65;102922.22;146613;591;46010;-79
2023/02/09 12:37:23;;;;;;;;;51.25;39.50;;;;;4.64;74.52;102928.97;146611;634;46016;-78
2023/02/09 12:41:07;;;;;;;;;54.25;41.50;;;;;4.70;74.42;102926.16;146619;565;46020;-76
2023/02/09 12:44:42;;;;;;;;;55.50;44.75;;;;;3.80;74.30;102757.88;146613;626;47014;-78
2023/02/09 12:47:51;;;;;;;;;58.75;48.00;;;;;4.74;74.46;102923.19;146614;658;47026;-78
2023/02/09 12:51:22;;;;;;;;;69.00;51.75;;;;;4.72;74.30;102922.09;146612;574;46016;-78
2023/02/09 12:54:50;;;;;;;;;66.75;51.25;;;;;4.75;74.51;102912.16;146615;571;46019;-79
2023/02/09 12:57:59;;;;;;;;;69.00;53.00;;;;;4.77;74.94;102913.25;146617;660;46013;-79
2023/02/09 13:01:00;;;;;;;;;74.00;57.00;;;;;4.76;74.93;102916.53;146615;592;47051;-79
2023/02/09 13:04:20;;;;;;;;;67.75;52.75;;;;;3.48;74.25;102704.81;146619;603;46012;-78
2023/02/09 13:07:55;;;;;;;;;67.75;51.25;;;;;4.68;74.62;102925.09;146617;598;46010;-79
2023/02/09 13:11:20;;;;;;;;;67.50;52.25;;;;;4.61;75.15;102928.63;146619;565;46012;-79
2023/02/09 13:14:21;;;;;;;;;46.75;35.75;;;;;4.58;75.61;102923.19;146616;577;46010;-80
2023/02/09 13:18:01;;;;;;;;;53.50;40.50;;;;;4.47;75.34;102923.62;146611;580;47914;-80
2023/02/09 13:21:50;;;;;;;;;53.00;38.50;;;;;2.91;75.40;102656.56;146618;586;47010;-80
2023/02/09 13:25:34;;;;;;;;;57.50;46.25;;;;;3.54;75.18;102789.25;146612;586;46016;-80
2023/02/09 13:28:37;;;;;;;;;52.50;39.50;;;;;4.29;75.83;102937.91;146618;589;46012;-79
2023/02/09 13:32:21;;;;;;;;;66.75;52.50;;;;;2.51;76.71;102636.69;146613;633;46032;-81
2023/02/09 13:36:00;;;;;;;;;59.50;47.75;;;;;4.02;77.10;102930.56;146618;628;46020;-79
2023/02/09 13:39:05;;;;;;;;;64.50;48.75;;;;;3.92;78.11;102937.28;146612;569;46016;-80
2023/02/09 13:42:27;;;;;;;;;56.75;43.50;;;;;3.85;77.51;102927.03;146614;676;46011;-81
2023/02/09 13:45:31;;;;;;;;;56.00;44.50;;;;;3.86;78.19;102926.31;146606;742;46016;-79
2023/02/09 13:48:55;;;;;;;;;53.00;43.00;;;;;2.55;77.68;102678.91;146613;605;46010;-80
2023/02/09 13:52:29;;;;;;;;;75.33;58.00;;;;;3.03;78.12;102733.94;146612;676;45913;-79
2023/02/09 13:55:36;;;;;;;;;63.75;50.50;;;;;4.08;78.37;102911.69;146615;583;46010;-79
2023/02/09 13:58:40;;;;;;;;;51.25;40.50;;;;;4.16;78.90;102918.56;146611;680;46012;-80
2023/02/09 14:01:44;;;;;;;;;53.75;44.50;;;;;4.15;78.80;102927.00;146614;577;46010;-80
2023/02/09 14:04:40;;;;;;;;;55.50;42.50;;;;;4.10;78.29;102922.09;146610;625;46017;-80
2023/02/09 14:07:50;;;;;;;;;;;;;;;;;;;;;
2023/02/09 14:11:07;;;;;;;;;54.50;40.75;;;;;4.11;78.39;102916.22;146608;591;46016;-80
2023/02/09 14:14:23;;;;;;;;;61.00;46.75;;;;;4.15;78.48;102910.69;146612;591;46020;-79
2023/02/09 14:17:37;;;;;;;;;90.33;78.67;;;;;4.19;79.17;102920.56;146613;608;46016;-81
2023/02/09 14:20:41;;;;;;;;;74.67;57.33;;;;;4.14;78.14;102922.63;146616;574;46021;-80
2023/02/09 14:23:43;;;;;;;;;79.00;60.33;;;;;4.15;78.68;102927.00;146609;590;46016;-79
2023/02/09 14:27:08;;;;;;;;;;;;;;;;;;;;;
2023/02/09 14:30:20;;;;;;;;;74.00;56.00;;;;;4.16;78.07;102933.06;146611;664;46016;-79
2023/02/09 14:33:27;;;;;;;;;73.25;56.50;;;;;4.15;77.73;102936.38;146615;589;46010;-79
2023/02/09 14:37:00;;;;;;;;;65.00;50.50;;;;;3.20;76.98;102784.53;146609;595;46016;-80
2023/02/09 14:40:36;;;;;;;;;65.50;49.25;;;;;2.59;77.61;102668.31;146610;603;47012;-79
2023/02/09 14:43:49;;;;;;;;;;;;;;;;;;;;;
2023/02/09 14:47:04;;;;;;;;;62.25;49.25;;;;;3.91;77.28;102931.94;146609;573;47012;-78
2023/02/09 14:50:11;;;;;;;;;69.75;53.00;;;;;3.90;78.11;102931.03;146602;592;47913;-79
2023/02/09 14:53:31;;;;;;;;;71.25;54.25;;;;;3.94;77.81;102934.87;146609;597;47010;-79
2023/02/09 14:56:45;;;;;;;;;67.50;52.00;;;;;3.91;78.71;102938.00;146601;564;48915;-79
2023/02/09 14:59:41;;;;;;;;;62.25;49.75;;;;;3.85;79.33;102933.81;146610;650;46020;-79
2023/02/09 15:02:39;;;;;;;;;68.50;51.00;;;;;3.78;79.88;102941.56;146604;564;46016;-79
2023/02/09 15:05:41;;;;;;;;;94.67;78.33;;;;;3.68;79.21;102927.69;146612;569;46020;-79
2023/02/09 15:08:44;;;;;;;;;81.33;63.33;;;;;3.66;79.17;102934.28;146609;580;47012;-77
2023/02/09 15:15:22;;;;;;;;;91.00;75.00;;;;;3.59;79.72;102915.47;146614;572;46018;-77
2023/02/09 15:18:39;;;;;;;;;86.33;69.33;;;;;2.72;78.51;102747.47;146616;626;46021;-80
2023/02/09 15:21:41;;;;;;;;;96.67;84.00;;;;;3.74;79.70;102935.19;146616;590;46016;-81
2023/02/09 15:24:33;;;;;;;;;73.67;57.00;;;;;3.74;79.53;102934.25;146607;574;46020;-79
2023/02/09 15:28:02;;;;;;;;;72.25;53.75;;;;;3.61;79.25;102917.44;146604;584;46014;-78
2023/02/09 15:31:01;;;;;;;;;68.25;52.25;;;;;3.63;79.85;102926.25;146614;593;46010;-79